Peary Spirit — C6YM3 — position and weather

sailwx.info

Track history (hours):
 
Tides and Currents Weather Stations Pressure Air Temp Water Temp Dewpoint Dewpoint Depression Visibility Wind Speed Wind Dir Waves Ship Positions

Peary Spirit

Last reported at 2015-Aug-05 09:32 UTC. Time now 2015-Aug-05 10:27 UTC.
Position N 51°50' W 008°16'.

Length 249 m; draft 12.7 m.

Type: Tanker. MMSI: 311027600.

Date/timePositionNaut miles runAvg speedWind from/ knotsBaromVisibWave heightAir tempDewpointWater temp
2015-Aug-05 09:32N 51°50' W 008°16'0 0.0
2015-Aug-05 08:32N 51°50' W 008°16'0 0.0
2015-Aug-05 07:32N 51°50' W 008°16'0 0.0
2015-Aug-05 06:29N 51°50' W 008°16'0 0.0
2015-Aug-05 05:32N 51°50' W 008°16'0 0.0
2015-Aug-05 04:32N 51°50' W 008°16'0 0.0
2015-Aug-05 03:32N 51°50' W 008°16'0 0.0
2015-Aug-05 02:32N 51°50' W 008°16'0 0.0
2015-Aug-05 01:32N 51°50' W 008°16'0 0.0
2015-Aug-05 00:32N 51°50' W 008°16'0 0.0
2015-Aug-04 23:32N 51°50' W 008°16'0 0.0
2015-Aug-04 22:32N 51°50' W 008°16'0 0.0
2015-Aug-04 21:32N 51°50' W 008°16'0 0.0
2015-Aug-04 20:32N 51°50' W 008°16'0 0.0
2015-Aug-04 19:32N 51°50' W 008°16'0 0.0
2015-Aug-04 18:32N 51°50' W 008°16'0 0.0
2015-Aug-04 17:32N 51°50' W 008°16'0 0.0
2015-Aug-04 16:31N 51°50' W 008°16'0 0.0
2015-Aug-04 15:31N 51°50' W 008°16'0 0.0
2015-Aug-04 14:31N 51°50' W 008°16'0 0.0
2015-Aug-04 13:32N 51°50' W 008°16'0 0.0
2015-Aug-04 12:29N 51°50' W 008°16'0 0.0
2015-Aug-04 11:31N 51°50' W 008°16'0 0.0
2015-Aug-04 10:31N 51°50' W 008°16'0 0.0
2015-Aug-04 09:31N 51°50' W 008°16'0 0.0
2015-Aug-04 08:31N 51°50' W 008°16'0 0.0
2015-Aug-04 07:34N 51°50' W 008°16'1 1.3
2015-Aug-04 06:34N 51°49' W 008°16'6 5.6
2015-Aug-04 05:33N 51°44' W 008°12'4 3.8
2015-Aug-04 04:34N 51°45' W 008°06'9 9.2
2015-Aug-04 03:34N 51°47' W 007°52'10 9.8
2015-Aug-04 02:33N 51°49' W 007°36'10 9.7
2015-Aug-04 01:33N 51°52' W 007°21'10 9.6
2015-Aug-04 00:34N 51°54' W 007°06'1211.8
2015-Aug-03 23:34N 51°57' W 006°48'1111.1
2015-Aug-03 22:33N 51°60' W 006°30'1010.3
2015-Aug-03 21:34N 52°06' W 006°16'9 9.1
2015-Aug-03 20:34N 52°12' W 006°05'9 9.3
2015-Aug-03 19:34N 52°20' W 005°59'10 9.9
2015-Aug-03 18:33N 52°29' W 005°53'8812.5
2015-Aug-03 11:30N 53°55' W 005°18'1111.7
2015-Aug-03 10:33N 54°06' W 005°16'1212.0
2015-Aug-03 09:33N 54°18' W 005°13'1313.3
2015-Aug-03 08:34N 54°31' W 005°12'1413.7
2015-Aug-03 07:33N 54°44' W 005°21'1312.5
2015-Aug-03 06:30N 54°55' W 005°32'1212.7
2015-Aug-03 05:33N 55°05' W 005°44'1110.6
2015-Aug-03 04:33N 55°13' W 005°56'9 8.9
2015-Aug-03 03:33N 55°20' W 006°05'1010.0
2015-Aug-03 02:33N 55°25' W 006°21'1110.9
2015-Aug-03 01:33N 55°31' W 006°37'1212.0
2015-Aug-03 00:33N 55°41' W 006°50'1312.6
2015-Aug-02 23:33N 55°51' W 007°02'24210.3
2015-Aug-02 00:06N 59°31' W 003°53'712.7
2015-Aug-01 23:33N 59°32' W 003°40'  
2015-Jul-28 04:33N 54°48' E 000°26'7 7.2
2015-Jul-28 03:33N 54°41' E 000°21'6 6.4
2015-Jul-28 02:33N 54°35' E 000°20'6 6.1
2015-Jul-28 01:33N 54°28' E 000°20'6 6.1
2015-Jul-28 00:33N 54°22' E 000°20'6 6.2
2015-Jul-27 23:33N 54°16' E 000°20'6 6.5
2015-Jul-27 22:33N 54°10' E 000°20'7 6.7
2015-Jul-27 21:33N 54°03' E 000°20'7 6.6
2015-Jul-27 20:33N 53°56' E 000°20'7 6.6
2015-Jul-27 19:33N 53°50' E 000°21'7 6.8
2015-Jul-27 18:33N 53°43' E 000°24'7 6.8
2015-Jul-27 17:33N 53°37' E 000°20'8 7.6
2015-Jul-27 16:33N 53°33' E 000°10'2 1.5
2015-Jul-27 15:23N 53°32' E 000°07'0 0.1
2015-Jul-27 14:25N 53°32' E 000°07'0 0.1
2015-Jul-27 13:23N 53°32' E 000°07'0 0.0
2015-Jul-27 12:26N 53°32' E 000°07'0 0.0
2015-Jul-27 11:28N 53°32' E 000°07'0 0.1
2015-Jul-27 10:29N 53°32' E 000°07'0 0.1
2015-Jul-27 09:30N 53°32' E 000°07'0 0.1
2015-Jul-27 08:32N 53°32' E 000°07'0 0.0
2015-Jul-27 07:32N 53°32' E 000°07'0 0.0
2015-Jul-27 06:31N 53°32' E 000°07'0 0.0
2015-Jul-27 05:25N 53°32' E 000°07'0 0.0
2015-Jul-27 04:31N 53°32' E 000°07'0 0.2
2015-Jul-27 03:25N 53°33' E 000°07'0 0.2
2015-Jul-27 02:22N 53°32' E 000°07'0 0.0
2015-Jul-27 01:19N 53°32' E 000°07'0 0.0
2015-Jul-27 00:25N 53°32' E 000°07'0 0.0
2015-Jul-26 23:31N 53°32' E 000°07'0 0.0
2015-Jul-26 22:28N 53°32' E 000°07'0 0.0
2015-Jul-26 21:28N 53°32' E 000°07'0 0.0
2015-Jul-26 20:25N 53°32' E 000°07'0 0.2
2015-Jul-26 19:31N 53°32' E 000°07'0 0.2
2015-Jul-26 18:31N 53°32' E 000°07'0 0.0
2015-Jul-26 17:31N 53°32' E 000°07'0 0.1
2015-Jul-26 16:31N 53°32' E 000°07'0 0.0
2015-Jul-26 15:31N 53°32' E 000°07'0 0.1
2015-Jul-26 14:25N 53°33' E 000°07'0 0.0
2015-Jul-26 13:33N 53°33' E 000°07'2 1.6
2015-Jul-26 12:33N 53°33' E 000°09'7 6.8
2015-Jul-26 11:33N 53°36' E 000°19'5 5.0
2015-Jul-26 10:33N 53°41' E 000°23'5 5.1
2015-Jul-26 09:33N 53°45' E 000°27'  
Track history (hours):
 
Tides and Currents Weather Stations Pressure Air Temp Water Temp Dewpoint Dewpoint Depression Visibility Wind Speed Wind Dir Waves Ship Positions

Peary Spirit

Last reported at 2015-Aug-05 09:32 UTC. Time now 2015-Aug-05 10:27 UTC.
Position N 51°50' W 008°16'.

Length 249 m; draft 12.7 m.

Type: Tanker. MMSI: 311027600.

Date/timePositionNaut miles runAvg speedWind from/ knotsBaromVisibWave heightAir tempDewpointWater temp
2015-Aug-05 09:32N 51°50' W 008°16'0 0.0
2015-Aug-05 08:32N 51°50' W 008°16'0 0.0
2015-Aug-05 07:32N 51°50' W 008°16'0 0.0
2015-Aug-05 06:29N 51°50' W 008°16'0 0.0
2015-Aug-05 05:32N 51°50' W 008°16'0 0.0
2015-Aug-05 04:32N 51°50' W 008°16'0 0.0
2015-Aug-05 03:32N 51°50' W 008°16'0 0.0
2015-Aug-05 02:32N 51°50' W 008°16'0 0.0
2015-Aug-05 01:32N 51°50' W 008°16'0 0.0
2015-Aug-05 00:32N 51°50' W 008°16'0 0.0
2015-Aug-04 23:32N 51°50' W 008°16'0 0.0
2015-Aug-04 22:32N 51°50' W 008°16'0 0.0
2015-Aug-04 21:32N 51°50' W 008°16'0 0.0
2015-Aug-04 20:32N 51°50' W 008°16'0 0.0
2015-Aug-04 19:32N 51°50' W 008°16'0 0.0
2015-Aug-04 18:32N 51°50' W 008°16'0 0.0
2015-Aug-04 17:32N 51°50' W 008°16'0 0.0
2015-Aug-04 16:31N 51°50' W 008°16'0 0.0
2015-Aug-04 15:31N 51°50' W 008°16'0 0.0
2015-Aug-04 14:31N 51°50' W 008°16'0 0.0
2015-Aug-04 13:32N 51°50' W 008°16'0 0.0
2015-Aug-04 12:29N 51°50' W 008°16'0 0.0
2015-Aug-04 11:31N 51°50' W 008°16'0 0.0
2015-Aug-04 10:31N 51°50' W 008°16'0 0.0
2015-Aug-04 09:31N 51°50' W 008°16'0 0.0
2015-Aug-04 08:31N 51°50' W 008°16'0 0.0
2015-Aug-04 07:34N 51°50' W 008°16'1 1.3
2015-Aug-04 06:34N 51°49' W 008°16'6 5.6
2015-Aug-04 05:33N 51°44' W 008°12'4 3.8
2015-Aug-04 04:34N 51°45' W 008°06'9 9.2
2015-Aug-04 03:34N 51°47' W 007°52'10 9.8
2015-Aug-04 02:33N 51°49' W 007°36'10 9.7
2015-Aug-04 01:33N 51°52' W 007°21'10 9.6
2015-Aug-04 00:34N 51°54' W 007°06'1211.8
2015-Aug-03 23:34N 51°57' W 006°48'1111.1
2015-Aug-03 22:33N 51°60' W 006°30'1010.3
2015-Aug-03 21:34N 52°06' W 006°16'9 9.1
2015-Aug-03 20:34N 52°12' W 006°05'9 9.3
2015-Aug-03 19:34N 52°20' W 005°59'10 9.9
2015-Aug-03 18:33N 52°29' W 005°53'8812.5
2015-Aug-03 11:30N 53°55' W 005°18'1111.7
2015-Aug-03 10:33N 54°06' W 005°16'1212.0
2015-Aug-03 09:33N 54°18' W 005°13'1313.3
2015-Aug-03 08:34N 54°31' W 005°12'1413.7
2015-Aug-03 07:33N 54°44' W 005°21'1312.5
2015-Aug-03 06:30N 54°55' W 005°32'1212.7
2015-Aug-03 05:33N 55°05' W 005°44'1110.6
2015-Aug-03 04:33N 55°13' W 005°56'9 8.9
2015-Aug-03 03:33N 55°20' W 006°05'1010.0
2015-Aug-03 02:33N 55°25' W 006°21'1110.9
2015-Aug-03 01:33N 55°31' W 006°37'1212.0
2015-Aug-03 00:33N 55°41' W 006°50'1312.6
2015-Aug-02 23:33N 55°51' W 007°02'24210.3
2015-Aug-02 00:06N 59°31' W 003°53'712.7
2015-Aug-01 23:33N 59°32' W 003°40'  
2015-Jul-28 04:33N 54°48' E 000°26'7 7.2
2015-Jul-28 03:33N 54°41' E 000°21'6 6.4
2015-Jul-28 02:33N 54°35' E 000°20'6 6.1
2015-Jul-28 01:33N 54°28' E 000°20'6 6.1
2015-Jul-28 00:33N 54°22' E 000°20'6 6.2
2015-Jul-27 23:33N 54°16' E 000°20'6 6.5
2015-Jul-27 22:33N 54°10' E 000°20'7 6.7
2015-Jul-27 21:33N 54°03' E 000°20'7 6.6
2015-Jul-27 20:33N 53°56' E 000°20'7 6.6
2015-Jul-27 19:33N 53°50' E 000°21'7 6.8
2015-Jul-27 18:33N 53°43' E 000°24'7 6.8
2015-Jul-27 17:33N 53°37' E 000°20'8 7.6
2015-Jul-27 16:33N 53°33' E 000°10'2 1.5
2015-Jul-27 15:23N 53°32' E 000°07'0 0.1
2015-Jul-27 14:25N 53°32' E 000°07'0 0.1
2015-Jul-27 13:23N 53°32' E 000°07'0 0.0
2015-Jul-27 12:26N 53°32' E 000°07'0 0.0
2015-Jul-27 11:28N 53°32' E 000°07'0 0.1
2015-Jul-27 10:29N 53°32' E 000°07'0 0.1
2015-Jul-27 09:30N 53°32' E 000°07'0 0.1
2015-Jul-27 08:32N 53°32' E 000°07'0 0.0
2015-Jul-27 07:32N 53°32' E 000°07'0 0.0
2015-Jul-27 06:31N 53°32' E 000°07'0 0.0
2015-Jul-27 05:25N 53°32' E 000°07'0 0.0
2015-Jul-27 04:31N 53°32' E 000°07'0 0.2
2015-Jul-27 03:25N 53°33' E 000°07'0 0.2
2015-Jul-27 02:22N 53°32' E 000°07'0 0.0
2015-Jul-27 01:19N 53°32' E 000°07'0 0.0
2015-Jul-27 00:25N 53°32' E 000°07'0 0.0
2015-Jul-26 23:31N 53°32' E 000°07'0 0.0
2015-Jul-26 22:28N 53°32' E 000°07'0 0.0
2015-Jul-26 21:28N 53°32' E 000°07'0 0.0
2015-Jul-26 20:25N 53°32' E 000°07'0 0.2
2015-Jul-26 19:31N 53°32' E 000°07'0 0.2
2015-Jul-26 18:31N 53°32' E 000°07'0 0.0
2015-Jul-26 17:31N 53°32' E 000°07'0 0.1
2015-Jul-26 16:31N 53°32' E 000°07'0 0.0
2015-Jul-26 15:31N 53°32' E 000°07'0 0.1
2015-Jul-26 14:25N 53°33' E 000°07'0 0.0
2015-Jul-26 13:33N 53°33' E 000°07'2 1.6
2015-Jul-26 12:33N 53°33' E 000°09'7 6.8
2015-Jul-26 11:33N 53°36' E 000°19'5 5.0
2015-Jul-26 10:33N 53°41' E 000°23'5 5.1
2015-Jul-26 09:33N 53°45' E 000°27'  

Dump ship's entire track history